createdAt,value
2023-03-21T00:00:48.353Z,6.00
2023-03-21T00:03:16.433Z,5.90
2023-03-21T00:05:51.782Z,5.70
2023-03-21T00:08:25.348Z,6.30
2023-03-21T00:11:02.110Z,5.90
2023-03-21T00:13:33.504Z,6.60
2023-03-21T00:16:26.150Z,6.10
2023-03-21T00:18:57.331Z,5.90
2023-03-21T00:24:15.805Z,5.70
2023-03-21T00:26:43.234Z,5.50
2023-03-21T00:29:10.696Z,5.00
2023-03-21T00:31:38.102Z,5.30
2023-03-21T00:34:05.732Z,5.50
2023-03-21T00:36:33.243Z,5.40
2023-03-21T00:39:06.318Z,5.10
2023-03-21T00:41:48.936Z,5.50
2023-03-21T00:44:16.362Z,4.70
2023-03-21T00:47:04.469Z,4.90
2023-03-21T00:49:33.936Z,5.10
2023-03-21T00:52:15.248Z,5.10
2023-03-21T00:54:44.555Z,5.10
2023-03-21T00:57:11.929Z,5.10
2023-03-21T00:59:39.253Z,5.60
2023-03-21T01:02:14.721Z,4.90
2023-03-21T01:04:42.309Z,5.60
2023-03-21T01:07:09.648Z,5.20
2023-03-21T01:09:37.684Z,5.70
2023-03-21T01:12:05.682Z,5.20
2023-03-21T01:14:33.031Z,5.40
2023-03-21T01:17:00.555Z,5.90
2023-03-21T01:19:44.323Z,5.20
2023-03-21T01:22:16.216Z,6.00
2023-03-21T01:24:52.979Z,5.40
2023-03-21T01:27:21.480Z,5.00
2023-03-21T01:29:48.871Z,5.20
2023-03-21T01:32:16.934Z,5.10
2023-03-21T01:34:44.405Z,5.30
2023-03-21T01:37:11.918Z,5.50
2023-03-21T01:39:39.470Z,5.10
2023-03-21T01:42:06.853Z,4.80
2023-03-21T01:44:58.758Z,4.90
2023-03-21T01:47:26.788Z,4.70
2023-03-21T01:49:59.167Z,4.50
2023-03-21T01:52:38.365Z,4.80
2023-03-21T01:55:13.512Z,4.50
2023-03-21T01:58:04.784Z,4.10
2023-03-21T02:00:34.229Z,4.80
2023-03-21T02:03:15.297Z,4.80
2023-03-21T02:05:55.868Z,4.30
2023-03-21T02:08:30.556Z,4.50
2023-03-21T02:11:07.113Z,3.90
2023-03-21T02:13:35.662Z,3.80
2023-03-21T02:16:13.915Z,4.30
2023-03-21T02:19:32.855Z,3.60
2023-03-21T02:22:27.841Z,3.80
2023-03-21T02:25:21.932Z,4.00
2023-03-21T02:28:01.315Z,3.60
2023-03-21T02:30:51.310Z,3.80
2023-03-21T02:34:03.794Z,3.60
2023-03-21T02:36:55.362Z,3.10
2023-03-21T02:42:11.352Z,3.60
2023-03-21T02:44:56.328Z,4.00
2023-03-21T02:47:34.917Z,3.40
2023-03-21T02:50:25.056Z,3.20
2023-03-21T02:52:54.263Z,3.20
2023-03-21T02:55:27.455Z,3.70
2023-03-21T02:57:57.512Z,3.50
2023-03-21T03:00:31.301Z,3.30
2023-03-21T03:03:08.691Z,3.30
2023-03-21T03:05:49.936Z,3.00
2023-03-21T03:09:01.305Z,3.40
2023-03-21T03:11:37.044Z,3.10
2023-03-21T03:14:44.229Z,2.80
2023-03-21T03:17:32.624Z,3.00
2023-03-21T03:20:17.989Z,3.00
2023-03-21T03:23:08.430Z,3.10
2023-03-21T03:25:54.716Z,2.70
2023-03-21T03:28:28.976Z,2.40
2023-03-21T03:31:08.807Z,2.90
2023-03-21T03:33:41.616Z,2.50
2023-03-21T03:36:25.049Z,2.90
2023-03-21T03:38:59.856Z,3.20
2023-03-21T03:41:30.133Z,2.70
2023-03-21T03:44:04.188Z,2.40
2023-03-21T03:46:54.142Z,2.50
2023-03-21T03:49:27.543Z,3.00
2023-03-21T03:52:20.369Z,2.50
2023-03-21T03:54:51.728Z,2.50
2023-03-21T03:59:47.137Z,2.80
2023-03-21T04:02:14.917Z,2.50
2023-03-21T04:04:42.394Z,2.50
2023-03-21T04:07:10.317Z,2.80
2023-03-21T04:09:44.647Z,2.70
2023-03-21T04:12:13.419Z,2.40
2023-03-21T04:14:45.704Z,2.40
2023-03-21T04:17:15.504Z,2.50
2023-03-21T04:19:43.004Z,2.30
2023-03-21T04:22:10.839Z,2.90
2023-03-21T04:24:39.993Z,2.50
2023-03-21T04:27:07.422Z,2.70
2023-03-21T04:29:34.924Z,2.70
2023-03-21T04:32:02.584Z,2.50
2023-03-21T04:34:30.037Z,2.30
2023-03-21T04:36:57.376Z,3.10
2023-03-21T04:39:25.102Z,2.60
2023-03-21T04:41:52.528Z,2.20
2023-03-21T04:44:19.976Z,2.40
2023-03-21T04:46:47.317Z,2.60
2023-03-21T04:49:14.765Z,2.20
2023-03-21T04:51:44.057Z,2.50
2023-03-21T04:56:41.203Z,2.90
2023-03-21T04:59:13.092Z,2.40
2023-03-21T05:01:41.326Z,2.80
2023-03-21T05:04:08.902Z,2.80
2023-03-21T05:06:36.666Z,2.60
2023-03-21T05:09:07.037Z,2.70
2023-03-21T05:11:38.047Z,2.80
2023-03-21T05:14:07.356Z,2.50
2023-03-21T05:16:36.454Z,2.80
2023-03-21T05:19:04.555Z,2.80
2023-03-21T05:21:41.311Z,3.10
2023-03-21T05:24:13.631Z,3.00
2023-03-21T05:26:43.187Z,3.00
2023-03-21T05:29:11.288Z,2.80
2023-03-21T05:31:38.681Z,2.90
2023-03-21T05:34:06.185Z,2.80
2023-03-21T05:36:36.088Z,2.60
2023-03-21T05:39:03.618Z,3.00
2023-03-21T05:41:31.322Z,3.10
2023-03-21T05:43:58.687Z,2.90
2023-03-21T05:46:26.278Z,3.10
2023-03-21T05:48:53.786Z,3.20
2023-03-21T05:51:21.203Z,3.20
2023-03-21T05:53:48.820Z,3.30
2023-03-21T05:56:16.453Z,3.00
2023-03-21T05:58:44.006Z,3.10
2023-03-21T06:01:11.415Z,3.40
2023-03-21T06:03:38.927Z,3.50
2023-03-21T06:06:07.805Z,2.90
2023-03-21T06:08:35.164Z,3.20
2023-03-21T06:11:03.110Z,3.50
2023-03-21T06:13:32.746Z,3.30
2023-03-21T06:16:00.198Z,3.40
2023-03-21T06:18:28.171Z,3.60
2023-03-21T06:20:56.719Z,3.50
2023-03-21T06:23:24.196Z,4.30
2023-03-21T06:25:51.726Z,3.40
2023-03-21T06:28:19.158Z,3.60
2023-03-21T06:30:46.511Z,3.60
2023-03-21T06:33:14.034Z,3.70
2023-03-21T06:35:41.480Z,4.30
2023-03-21T06:38:09.780Z,3.80
2023-03-21T06:40:39.023Z,3.80
2023-03-21T06:43:06.771Z,3.40
2023-03-21T06:45:34.147Z,3.30
2023-03-21T06:48:01.632Z,3.60
2023-03-21T06:50:29.133Z,3.60
2023-03-21T06:52:57.658Z,3.40
2023-03-21T06:55:27.083Z,4.00
2023-03-21T06:57:56.363Z,3.80
2023-03-21T07:00:24.599Z,3.30
2023-03-21T07:02:52.042Z,4.20
2023-03-21T07:05:19.848Z,3.50
2023-03-21T07:07:47.217Z,4.20
2023-03-21T07:10:14.775Z,3.50
2023-03-21T07:12:42.268Z,3.90
2023-03-21T07:15:10.509Z,3.60
2023-03-21T07:17:37.829Z,4.30
2023-03-21T07:20:08.877Z,4.20
2023-03-21T07:22:37.028Z,4.20
2023-03-21T07:25:05.863Z,4.50
2023-03-21T07:27:33.886Z,4.50
2023-03-21T07:30:01.629Z,4.10
2023-03-21T07:32:30.064Z,3.70
2023-03-21T07:34:57.532Z,4.10
2023-03-21T07:37:25.365Z,4.40
2023-03-21T07:39:53.357Z,4.30
2023-03-21T07:42:20.860Z,4.60
2023-03-21T07:44:48.368Z,3.90
2023-03-21T07:47:16.099Z,3.80
2023-03-21T07:49:43.517Z,4.50
2023-03-21T07:52:11.000Z,4.50
2023-03-21T07:54:38.449Z,4.00
2023-03-21T07:57:05.928Z,4.40
2023-03-21T07:59:33.645Z,4.90
2023-03-21T08:02:01.072Z,4.40
2023-03-21T08:04:29.347Z,5.80
2023-03-21T08:06:57.466Z,5.20
2023-03-21T08:09:24.927Z,4.90
2023-03-21T08:11:52.381Z,4.50
2023-03-21T08:14:19.816Z,4.60
2023-03-21T08:16:47.230Z,4.10
2023-03-21T08:19:14.674Z,4.60
2023-03-21T08:21:42.586Z,4.60
2023-03-21T08:24:10.376Z,4.60
2023-03-21T08:26:38.277Z,4.90
2023-03-21T08:29:06.092Z,4.70
2023-03-21T08:31:33.579Z,4.30
2023-03-21T08:34:00.920Z,4.20
2023-03-21T08:36:28.434Z,4.20
2023-03-21T08:39:04.429Z,4.40
2023-03-21T08:41:33.141Z,4.20
2023-03-21T08:44:00.954Z,4.80
2023-03-21T08:46:28.399Z,4.60
2023-03-21T08:48:56.028Z,4.40
2023-03-21T08:51:23.449Z,5.10
2023-03-21T08:53:51.516Z,4.70
2023-03-21T08:56:19.091Z,4.80
2023-03-21T08:58:47.420Z,4.60
2023-03-21T09:01:15.887Z,4.90
2023-03-21T09:03:43.855Z,4.70
2023-03-21T09:06:14.530Z,4.90
2023-03-21T09:08:42.203Z,4.70
2023-03-21T09:11:10.763Z,4.50
2023-03-21T09:13:38.180Z,4.60
2023-03-21T09:16:06.224Z,4.80
2023-03-21T09:18:47.352Z,4.30
2023-03-21T09:21:18.508Z,4.70
2023-03-21T09:23:46.921Z,4.10
2023-03-21T09:26:15.451Z,4.40
2023-03-21T09:28:43.170Z,4.70
2023-03-21T09:31:11.912Z,4.60
2023-03-21T09:33:42.445Z,3.80
2023-03-21T09:36:14.169Z,4.00
2023-03-21T09:38:45.060Z,3.60
2023-03-21T09:41:55.717Z,3.90
2023-03-21T09:45:02.251Z,3.90
2023-03-21T09:47:37.753Z,3.50
2023-03-21T09:50:17.383Z,4.20
2023-03-21T09:53:01.020Z,3.50
2023-03-21T09:55:32.631Z,3.50
2023-03-21T09:58:32.319Z,3.60
2023-03-21T10:01:10.424Z,3.50
2023-03-21T10:03:38.255Z,3.30
2023-03-21T10:06:15.340Z,3.50
2023-03-21T10:08:48.054Z,3.60
2023-03-21T10:11:29.414Z,3.30
2023-03-21T10:16:38.191Z,3.20
2023-03-21T10:19:14.283Z,3.10
2023-03-21T10:22:03.752Z,3.30
2023-03-21T10:24:34.625Z,2.90
2023-03-21T10:27:03.806Z,2.90
2023-03-21T10:29:43.303Z,2.80
2023-03-21T10:32:15.622Z,2.90
2023-03-21T10:34:49.492Z,2.90
2023-03-21T10:37:17.646Z,2.80
2023-03-21T10:39:51.620Z,2.70
2023-03-21T10:42:26.357Z,2.80
2023-03-21T10:44:57.580Z,2.80
2023-03-21T10:50:13.411Z,2.40
2023-03-21T10:52:48.871Z,2.50
2023-03-21T10:55:46.680Z,2.40
2023-03-21T10:58:25.209Z,2.60
2023-03-21T11:01:02.127Z,2.20
2023-03-21T11:03:37.938Z,2.70
2023-03-21T11:06:23.744Z,3.00
2023-03-21T11:08:56.674Z,2.90
2023-03-21T11:11:38.071Z,2.70
2023-03-21T11:14:36.197Z,3.10
2023-03-21T11:17:18.931Z,2.40
2023-03-21T11:20:01.729Z,2.60
2023-03-21T11:22:39.066Z,2.50
2023-03-21T11:25:12.206Z,3.10
2023-03-21T11:27:49.526Z,2.60
2023-03-21T11:30:25.093Z,3.20
2023-03-21T11:32:59.927Z,2.60
2023-03-21T11:35:37.905Z,2.50
2023-03-21T11:38:10.897Z,2.90
2023-03-21T11:40:52.366Z,2.60
2023-03-21T11:43:19.753Z,2.70
2023-03-21T11:46:09.695Z,2.50
2023-03-21T11:48:42.956Z,2.40
2023-03-21T11:51:22.797Z,2.80
2023-03-21T11:54:13.940Z,2.50
2023-03-21T11:57:07.499Z,2.70
2023-03-21T11:59:57.423Z,2.70
2023-03-21T12:02:55.835Z,3.00
2023-03-21T12:05:38.405Z,2.70
2023-03-21T12:08:21.135Z,3.10
2023-03-21T12:11:13.754Z,2.70
2023-03-21T12:13:57.997Z,2.80
2023-03-21T12:16:43.361Z,2.80
2023-03-21T12:19:43.019Z,2.90
2023-03-21T12:22:34.182Z,3.00
2023-03-21T12:25:16.065Z,2.80
2023-03-21T12:28:31.736Z,3.10
2023-03-21T12:31:21.338Z,3.20
2023-03-21T12:34:04.835Z,3.00
2023-03-21T12:37:01.918Z,3.40
2023-03-21T12:39:32.850Z,3.00
2023-03-21T12:42:42.111Z,2.80
2023-03-21T12:45:22.329Z,3.00
2023-03-21T12:48:00.661Z,2.50
2023-03-21T12:50:36.871Z,2.70
2023-03-21T12:53:47.517Z,2.50
2023-03-21T12:56:38.483Z,3.00
2023-03-21T12:59:26.335Z,3.10
2023-03-21T13:02:00.646Z,3.40
2023-03-21T13:05:01.693Z,3.60
2023-03-21T13:07:34.560Z,2.80
2023-03-21T13:10:04.878Z,2.90
2023-03-21T13:12:58.613Z,2.70
2023-03-21T13:15:58.718Z,2.50
2023-03-21T13:18:49.132Z,2.50
2023-03-21T13:21:29.023Z,2.10
2023-03-21T13:24:17.948Z,2.00
2023-03-21T13:27:02.711Z,2.50
2023-03-21T13:29:45.416Z,2.00
2023-03-21T13:32:34.287Z,2.30
2023-03-21T13:35:14.818Z,2.10
2023-03-21T13:37:53.374Z,2.30
2023-03-21T13:40:38.265Z,3.00
2023-03-21T13:43:26.991Z,2.10
2023-03-21T13:45:54.815Z,1.80
2023-03-21T13:48:32.537Z,2.00
2023-03-21T13:51:03.470Z,1.90
2023-03-21T13:53:39.383Z,2.30
2023-03-21T13:56:12.795Z,2.40
2023-03-21T13:58:54.215Z,2.10
2023-03-21T14:01:30.412Z,2.00
2023-03-21T14:04:14.481Z,2.30
2023-03-21T14:06:50.849Z,2.00
2023-03-21T14:09:47.871Z,2.00
2023-03-21T14:12:24.916Z,2.00
2023-03-21T14:15:24.589Z,2.40
2023-03-21T14:17:56.878Z,2.20
2023-03-21T14:20:33.981Z,2.40
2023-03-21T14:23:06.446Z,2.10
2023-03-21T14:25:44.721Z,2.20
2023-03-21T14:28:23.750Z,2.40
2023-03-21T14:30:55.764Z,2.30
2023-03-21T14:33:36.305Z,2.10
2023-03-21T14:36:10.680Z,2.20
2023-03-21T14:38:40.909Z,2.00
2023-03-21T14:41:50.178Z,2.00
2023-03-21T14:44:25.436Z,2.10
2023-03-21T14:47:08.735Z,1.90
2023-03-21T14:49:38.590Z,1.70
2023-03-21T14:52:16.456Z,1.90
2023-03-21T14:54:47.205Z,1.90
2023-03-21T14:57:21.365Z,1.70
2023-03-21T14:59:53.086Z,1.60
2023-03-21T15:02:27.369Z,1.70
2023-03-21T15:04:59.121Z,1.80
2023-03-21T15:07:34.285Z,1.70
2023-03-21T15:10:17.869Z,1.60
2023-03-21T15:12:58.967Z,1.70
2023-03-21T15:15:29.955Z,1.60
2023-03-21T15:18:04.928Z,1.80
2023-03-21T15:20:37.029Z,1.60
2023-03-21T15:23:12.437Z,1.20
2023-03-21T15:25:40.756Z,1.40
2023-03-21T15:28:13.885Z,1.50
2023-03-21T15:30:50.369Z,1.70
2023-03-21T15:33:19.174Z,1.50
2023-03-21T15:35:56.507Z,1.70
2023-03-21T15:38:41.407Z,1.50
2023-03-21T15:41:20.978Z,1.90
2023-03-21T15:44:01.734Z,1.50
2023-03-21T15:46:43.455Z,1.40
2023-03-21T15:49:27.715Z,1.60
2023-03-21T15:52:09.732Z,1.40
2023-03-21T15:54:55.633Z,1.20
2023-03-21T15:57:30.048Z,1.30
2023-03-21T16:00:21.568Z,1.30
2023-03-21T16:05:32.069Z,1.80
2023-03-21T16:08:19.694Z,1.50
2023-03-21T16:10:49.004Z,1.50
2023-03-21T16:13:17.497Z,1.60
2023-03-21T16:15:46.902Z,1.70
2023-03-21T16:18:18.100Z,1.80
2023-03-21T16:23:15.927Z,1.50
2023-03-21T16:25:44.575Z,2.20
2023-03-21T16:28:17.493Z,2.10
2023-03-21T16:30:45.513Z,2.00
2023-03-21T16:33:14.294Z,1.80
2023-03-21T16:35:41.970Z,1.80
2023-03-21T16:38:12.798Z,1.80
2023-03-21T16:40:43.623Z,2.40
2023-03-21T16:43:11.598Z,2.10
2023-03-21T16:45:39.098Z,2.20
2023-03-21T16:48:08.895Z,2.10
2023-03-21T16:50:42.496Z,2.10
2023-03-21T16:53:10.070Z,2.30
2023-03-21T16:55:38.914Z,2.10
2023-03-21T16:58:06.646Z,2.30
2023-03-21T17:00:34.735Z,2.10
2023-03-21T17:03:12.685Z,2.10
2023-03-21T17:05:40.142Z,2.40
2023-03-21T17:08:07.592Z,2.10
2023-03-21T17:10:35.500Z,2.10
2023-03-21T17:13:02.891Z,2.20
2023-03-21T17:15:30.302Z,2.90
2023-03-21T17:17:57.736Z,2.60
2023-03-21T17:20:31.642Z,2.50
2023-03-21T17:22:59.692Z,2.60
2023-03-21T17:25:27.286Z,2.90
2023-03-21T17:27:54.716Z,2.60
2023-03-21T17:30:27.274Z,3.10
2023-03-21T17:32:55.430Z,2.50
2023-03-21T17:35:24.548Z,3.30
2023-03-21T17:37:52.941Z,3.00
2023-03-21T17:40:28.324Z,2.90
2023-03-21T17:42:57.321Z,3.30
2023-03-21T17:45:25.395Z,3.00
2023-03-21T17:47:54.900Z,2.70
2023-03-21T17:50:27.420Z,3.80
2023-03-21T17:52:57.473Z,3.50
2023-03-21T17:55:25.052Z,3.50
2023-03-21T17:57:52.787Z,3.90
2023-03-21T18:00:26.522Z,3.80
2023-03-21T18:02:54.233Z,3.60
2023-03-21T18:05:22.505Z,3.10
2023-03-21T18:08:09.788Z,3.40
2023-03-21T18:10:39.330Z,3.50
2023-03-21T18:13:07.092Z,3.80
2023-03-21T18:15:35.951Z,4.10
2023-03-21T18:18:05.867Z,3.80
2023-03-21T18:23:21.105Z,3.90
2023-03-21T18:25:49.577Z,3.50
2023-03-21T18:28:20.447Z,3.90
2023-03-21T18:33:40.404Z,3.90
2023-03-21T18:36:09.770Z,4.20
2023-03-21T18:38:37.933Z,4.20
2023-03-21T18:41:07.819Z,4.30
2023-03-21T18:46:24.297Z,3.90
2023-03-21T18:48:52.103Z,4.10
2023-03-21T18:51:19.640Z,4.60
2023-03-21T18:53:47.591Z,4.80
2023-03-21T18:56:57.602Z,4.80
2023-03-21T18:59:03.518Z,4.30
2023-03-21T19:01:32.588Z,4.70
2023-03-21T19:06:48.507Z,5.10
2023-03-21T19:09:18.091Z,5.00
2023-03-21T19:11:46.366Z,5.20
2023-03-21T19:14:16.409Z,5.30
2023-03-21T19:17:25.311Z,5.00
2023-03-21T19:19:32.081Z,4.50
2023-03-21T19:21:59.446Z,5.30
2023-03-21T19:24:28.949Z,5.20
2023-03-21T19:26:57.042Z,4.70
2023-03-21T19:29:25.168Z,4.70
2023-03-21T19:31:53.107Z,4.70
2023-03-21T19:34:20.890Z,4.70
2023-03-21T19:36:51.831Z,4.60
2023-03-21T19:39:22.624Z,4.10
2023-03-21T19:41:51.203Z,4.80
2023-03-21T19:44:21.575Z,4.60
2023-03-21T19:46:51.051Z,4.40
2023-03-21T19:49:22.248Z,4.20
2023-03-21T19:54:18.151Z,4.60
2023-03-21T19:56:48.047Z,4.10
2023-03-21T19:59:17.282Z,4.90
2023-03-21T20:01:45.050Z,4.70
2023-03-21T20:04:13.163Z,4.10
2023-03-21T20:06:40.616Z,4.30
2023-03-21T20:11:57.773Z,4.50
2023-03-21T20:14:25.718Z,3.80
2023-03-21T20:16:55.351Z,4.70
2023-03-21T20:19:23.291Z,4.10
2023-03-21T20:21:57.912Z,4.20
2023-03-21T20:24:27.579Z,3.60
2023-03-21T20:26:55.678Z,4.10
2023-03-21T20:32:11.571Z,4.10
2023-03-21T20:34:39.361Z,4.60
2023-03-21T20:37:07.200Z,4.30
2023-03-21T20:39:35.540Z,4.30
2023-03-21T20:42:03.696Z,4.10
2023-03-21T20:47:18.797Z,3.60
2023-03-21T20:49:46.566Z,3.90
2023-03-21T20:52:54.511Z,4.00
2023-03-21T20:55:03.109Z,4.10
2023-03-21T20:57:30.515Z,3.50
2023-03-21T20:59:57.955Z,4.10
2023-03-21T21:02:25.414Z,3.80
2023-03-21T21:05:23.623Z,4.00
2023-03-21T21:07:42.982Z,3.90
2023-03-21T21:10:14.448Z,4.00
2023-03-21T21:12:45.260Z,3.60
2023-03-21T21:15:16.877Z,3.60
2023-03-21T21:20:33.704Z,3.60
2023-03-21T21:23:01.318Z,3.70
2023-03-21T21:25:32.432Z,3.60
2023-03-21T21:28:01.780Z,3.40
2023-03-21T21:30:30.302Z,3.30
2023-03-21T21:33:00.748Z,3.60
2023-03-21T21:35:28.446Z,3.60
2023-03-21T21:37:56.071Z,3.90
2023-03-21T21:40:23.637Z,3.80
2023-03-21T21:42:51.376Z,3.60
2023-03-21T21:45:19.080Z,3.70
2023-03-21T21:47:46.595Z,3.90
2023-03-21T21:50:14.548Z,3.70
2023-03-21T21:52:43.894Z,3.60
2023-03-21T21:55:13.118Z,3.90
2023-03-21T21:57:40.946Z,3.60
2023-03-21T22:00:13.567Z,3.80
2023-03-21T22:02:41.592Z,3.70
2023-03-21T22:05:09.652Z,3.70
2023-03-21T22:07:38.049Z,4.00
2023-03-21T22:10:06.705Z,3.60
2023-03-21T22:12:34.246Z,4.20
2023-03-21T22:15:02.360Z,3.80
2023-03-21T22:17:29.873Z,3.90
2023-03-21T22:20:05.704Z,3.60
2023-03-21T22:22:34.744Z,3.60
2023-03-21T22:25:05.094Z,3.70
2023-03-21T22:27:33.533Z,3.90
2023-03-21T22:30:04.743Z,3.80
2023-03-21T22:32:34.495Z,3.80
2023-03-21T22:35:05.269Z,3.30
2023-03-21T22:37:35.998Z,4.00
2023-03-21T22:40:08.030Z,4.00
2023-03-21T22:42:37.706Z,3.60
2023-03-21T22:45:06.882Z,3.80
2023-03-21T22:47:34.404Z,3.50
2023-03-21T22:50:02.070Z,3.80
2023-03-21T22:52:29.638Z,3.50
2023-03-21T22:54:57.156Z,3.40
2023-03-21T22:57:25.392Z,3.30
2023-03-21T22:59:52.888Z,3.40
2023-03-21T23:02:20.431Z,4.30
2023-03-21T23:04:47.815Z,3.40
2023-03-21T23:07:15.655Z,3.40
2023-03-21T23:09:44.136Z,3.70
2023-03-21T23:12:11.552Z,3.70
2023-03-21T23:14:39.060Z,3.90
2023-03-21T23:17:06.391Z,3.90
2023-03-21T23:19:33.840Z,3.50
2023-03-21T23:22:01.264Z,3.60
2023-03-21T23:24:28.631Z,3.60
2023-03-21T23:26:55.991Z,3.60
2023-03-21T23:29:23.518Z,3.40
2023-03-21T23:31:51.023Z,4.10
2023-03-21T23:34:18.730Z,3.60
2023-03-21T23:36:46.077Z,3.10
2023-03-21T23:39:13.981Z,3.60
2023-03-21T23:41:42.914Z,3.70
2023-03-21T23:44:10.373Z,3.30
2023-03-21T23:46:37.881Z,3.50
2023-03-21T23:49:05.341Z,3.50
2023-03-21T23:51:32.763Z,3.70
2023-03-21T23:54:00.414Z,3.90
2023-03-21T23:56:28.738Z,3.90
2023-03-21T23:58:57.953Z,4.60
